Time;durP1;ratioP1;P1;durP2;ratioP2;P2;SDS_P1;SDS_P2;PMS_P1;PMS_P2;Temp;Humidity;BMP_temperature;BMP_pressure;BME280_temperature;BME280_humidity;BME280_pressure;Samples;Min_cycle;Max_cycle;Signal;HPM_P1;HPM_P2
2023/03/08 00:01:23;;;;;;;10.75;5.70;;;;;;;14.62;48.53;100158.34;5025971;28;20606;-33
2023/03/08 00:03:54;;;;;;;10.70;6.03;;;;;;;14.61;47.53;100150.50;5025625;28;20389;-31
2023/03/08 00:06:23;;;;;;;12.07;6.40;;;;;;;14.61;48.26;100147.84;5026066;28;20135;-34
2023/03/08 00:08:49;;;;;;;9.82;5.53;;;;;;;14.60;47.88;100168.34;5024156;28;20052;-33
2023/03/08 00:11:16;;;;;;;9.60;5.43;;;;;;;14.58;48.27;100167.63;5022905;28;20076;-34
2023/03/08 00:13:43;;;;;;;9.00;5.20;;;;;;;14.58;47.53;100156.97;5025207;28;20049;-33
2023/03/08 00:16:11;;;;;;;10.85;5.15;;;;;;;14.56;47.60;100156.28;5024571;28;20062;-32
2023/03/08 00:18:39;;;;;;;9.88;5.93;;;;;;;14.54;48.12;100156.41;5025894;28;20075;-35
2023/03/08 00:21:08;;;;;;;9.60;5.90;;;;;;;14.54;48.24;100155.56;5023203;28;20315;-32
2023/03/08 00:23:35;;;;;;;8.38;5.05;;;;;;;14.53;48.23;100160.06;5021552;28;20056;-32
2023/03/08 00:26:03;;;;;;;8.25;4.45;;;;;;;14.52;47.95;100155.75;5024479;28;20049;-32
2023/03/08 00:28:29;;;;;;;8.50;4.85;;;;;;;14.51;47.65;100154.06;5022344;28;20068;-32
2023/03/08 00:31:04;;;;;;;10.13;5.35;;;;;;;14.50;48.37;100156.84;5021328;28;20042;-33
2023/03/08 00:33:31;;;;;;;7.43;4.53;;;;;;;14.50;47.52;100146.19;5024631;28;20124;-33
2023/03/08 00:36:04;;;;;;;7.38;4.40;;;;;;;14.49;48.16;100149.84;5023891;28;20060;-34
2023/03/08 00:38:33;;;;;;;8.23;4.57;;;;;;;14.43;48.17;100147.72;5022326;28;20060;-33
2023/03/08 00:40:59;;;;;;;7.78;4.63;;;;;;;14.42;48.69;100154.06;5023523;28;20124;-32
2023/03/08 00:43:27;;;;;;;8.32;4.75;;;;;;;14.48;48.63;100143.66;5025412;28;20129;-32
2023/03/08 00:45:54;;;;;;;7.20;4.47;;;;;;;14.56;47.61;100146.44;5029259;28;20075;-33
2023/03/08 00:48:20;;;;;;;8.68;4.90;;;;;;;14.64;48.36;100144.88;5025585;28;20056;-33
2023/03/08 00:50:47;;;;;;;7.88;4.72;;;;;;;14.73;48.12;100144.81;5026452;28;20456;-34
2023/03/08 00:53:14;;;;;;;7.78;4.55;;;;;;;14.81;47.38;100142.25;5021993;28;20442;-34
2023/03/08 00:55:52;;;;;;;7.53;4.55;;;;;;;14.87;47.02;100137.28;5020802;28;20045;-32
2023/03/08 00:58:19;;;;;;;7.07;4.15;;;;;;;14.90;47.90;100137.00;5020081;28;20052;-35
2023/03/08 01:00:47;;;;;;;7.00;4.50;;;;;;;14.92;47.42;100132.34;5024433;28;20087;-32
2023/03/08 01:03:14;;;;;;;7.00;4.18;;;;;;;14.94;46.77;100119.69;5012805;28;20073;-33
2023/03/08 01:05:43;;;;;;;7.47;4.32;;;;;;;14.95;46.85;100122.19;5019588;28;20076;-33
2023/03/08 01:08:11;;;;;;;6.95;4.03;;;;;;;14.96;46.82;100121.22;5024664;28;20061;-33
2023/03/08 01:10:37;;;;;;;7.00;4.00;;;;;;;14.97;46.62;100111.38;5020390;28;20052;-32
2023/03/08 01:13:06;;;;;;;6.88;4.20;;;;;;;15.00;47.16;100109.25;5022320;28;20049;-32
2023/03/08 01:15:37;;;;;;;6.38;3.58;;;;;;;15.00;46.71;100106.59;5023196;28;20067;-32
2023/03/08 01:18:05;;;;;;;6.60;3.63;;;;;;;15.01;47.14;100113.59;5024639;28;20510;-32
2023/03/08 01:20:32;;;;;;;6.03;3.30;;;;;;;15.02;46.45;100109.94;5021990;28;20038;-32
2023/03/08 01:22:59;;;;;;;6.18;3.45;;;;;;;15.03;47.20;100102.75;5021685;28;20049;-32
2023/03/08 01:25:25;;;;;;;7.15;3.65;;;;;;;15.03;47.04;100116.97;5022545;28;20060;-32
2023/03/08 01:27:52;;;;;;;5.00;3.30;;;;;;;15.01;47.10;100104.75;5022822;28;20053;-32
2023/03/08 01:30:19;;;;;;;5.13;3.20;;;;;;;14.96;47.11;100099.88;5019798;28;20464;-31
2023/03/08 01:32:46;;;;;;;6.65;3.30;;;;;;;14.93;47.35;100099.34;5022331;28;20045;-32
2023/03/08 01:35:12;;;;;;;5.43;3.15;;;;;;;14.85;47.25;100094.75;5019760;28;20056;-32
2023/03/08 01:37:39;;;;;;;5.60;3.30;;;;;;;14.78;46.53;100086.50;5024799;28;20057;-32
2023/03/08 01:40:06;;;;;;;5.97;3.28;;;;;;;14.73;46.94;100087.97;5021961;28;20046;-33
2023/03/08 01:42:33;;;;;;;5.00;3.40;;;;;;;14.64;47.42;100083.53;5023083;28;20341;-33
2023/03/08 01:45:03;;;;;;;5.90;3.28;;;;;;;14.55;47.29;100078.13;5022585;28;20056;-32
2023/03/08 01:47:34;;;;;;;6.75;3.53;;;;;;;14.46;47.54;100073.63;5023565;28;20088;-33
2023/03/08 01:50:12;;;;;;;4.57;2.92;;;;;;;14.38;47.86;100064.69;5024291;28;20115;-33
2023/03/08 01:52:45;;;;;;;5.82;3.55;;;;;;;14.39;48.05;100053.03;5023830;28;20045;-32
2023/03/08 01:55:15;;;;;;;5.88;3.65;;;;;;;14.45;48.27;100053.28;5020596;28;20051;-32
2023/03/08 01:57:53;;;;;;;6.53;3.40;;;;;;;14.56;47.99;100050.44;5022089;28;20052;-32
2023/03/08 02:00:22;;;;;;;4.25;2.70;;;;;;;14.69;47.88;100049.25;5022547;28;20171;-33
2023/03/08 02:02:53;;;;;;;4.78;3.03;;;;;;;14.78;47.16;100033.16;5023117;28;20058;-32
2023/03/08 02:05:20;;;;;;;5.72;3.10;;;;;;;14.88;46.94;100037.59;5021088;28;20410;-32
2023/03/08 02:07:47;;;;;;;5.60;2.90;;;;;;;14.97;47.51;100034.84;5023314;28;20062;-32
2023/03/08 02:10:14;;;;;;;4.53;3.05;;;;;;;15.06;47.39;100030.41;5024197;28;20049;-32
2023/03/08 02:12:41;;;;;;;4.63;2.90;;;;;;;15.13;46.59;100023.47;5022501;28;20060;-32
2023/03/08 02:15:11;;;;;;;4.32;3.00;;;;;;;15.21;46.83;100025.38;5020148;28;20061;-32
2023/03/08 02:17:39;;;;;;;5.70;2.88;;;;;;;15.27;46.77;100019.38;5017813;28;20046;-32
2023/03/08 02:20:09;;;;;;;4.40;2.83;;;;;;;15.33;46.97;100020.63;5021965;28;20133;-32
2023/03/08 02:22:38;;;;;;;5.05;3.00;;;;;;;15.36;46.03;100013.13;5020994;28;20069;-33
2023/03/08 02:25:25;;;;;;;3.90;2.70;;;;;;;15.38;46.38;100010.28;5024585;28;20483;-33
2023/03/08 02:27:53;;;;;;;5.40;3.13;;;;;;;15.38;46.04;100004.94;5018398;28;20046;-33
2023/03/08 02:30:25;;;;;;;3.88;2.67;;;;;;;15.37;45.68;100004.13;5016141;28;20064;-33
2023/03/08 02:32:52;;;;;;;4.07;2.53;;;;;;;15.36;46.20;100005.13;5019466;28;20072;-33
2023/03/08 02:35:19;;;;;;;4.97;2.63;;;;;;;15.34;46.86;99999.09;5026523;28;20325;-35
2023/03/08 02:37:45;;;;;;;4.75;2.92;;;;;;;15.31;46.16;99994.88;5023689;28;20053;-33
2023/03/08 02:40:13;;;;;;;4.45;2.50;;;;;;;15.31;46.41;99996.72;5022791;28;20042;-33
2023/03/08 02:42:39;;;;;;;4.50;2.42;;;;;;;15.32;46.48;100014.44;5026323;28;20055;-32
2023/03/08 02:45:06;;;;;;;3.95;2.67;;;;;;;15.29;46.42;99998.72;5022949;28;20328;-32
2023/03/08 02:47:33;;;;;;;5.32;2.17;;;;;;;15.30;45.89;99995.88;5024180;28;20233;-37
2023/03/08 02:49:59;;;;;;;3.75;2.63;;;;;;;15.29;46.88;99996.88;5020594;28;20501;-34
2023/03/08 02:52:27;;;;;;;3.80;2.35;;;;;;;15.29;46.39;99988.03;5022577;28;20058;-34
2023/03/08 02:54:53;;;;;;;4.40;2.22;;;;;;;15.26;45.71;99994.53;5025662;28;20056;-34
2023/03/08 02:57:20;;;;;;;4.00;2.17;;;;;;;15.24;45.88;99990.34;5023083;28;20053;-34
2023/03/08 02:59:47;;;;;;;3.20;2.25;;;;;;;15.22;46.48;99989.66;5023158;28;20054;-33
2023/03/08 03:02:13;;;;;;;4.03;2.45;;;;;;;15.16;46.88;99988.47;5025395;28;20049;-34
2023/03/08 03:04:40;;;;;;;4.05;2.28;;;;;;;15.12;46.91;100002.28;5022602;28;20041;-33
2023/03/08 03:07:07;;;;;;;3.28;2.00;;;;;;;15.09;46.95;99998.09;5025906;28;20115;-34
2023/03/08 03:09:34;;;;;;;4.13;2.28;;;;;;;15.09;46.94;99998.09;5026692;28;20147;-34
2023/03/08 03:12:01;;;;;;;3.53;2.22;;;;;;;15.14;46.13;99997.59;5024625;28;20049;-34
2023/03/08 03:14:28;;;;;;;4.03;2.45;;;;;;;15.17;46.91;99995.47;5027637;28;20345;-33
2023/03/08 03:16:55;;;;;;;3.40;2.03;;;;;;;15.22;46.79;99985.16;5027999;28;20045;-33
2023/03/08 03:19:21;;;;;;;5.22;2.20;;;;;;;15.27;46.05;99990.03;5025235;28;20046;-34
2023/03/08 03:21:48;;;;;;;3.03;2.00;;;;;;;15.31;46.07;99997.56;5026321;28;20043;-34
2023/03/08 03:24:15;;;;;;;3.33;1.98;;;;;;;15.35;45.63;99994.59;5026376;28;20049;-34
2023/03/08 03:26:41;;;;;;;4.30;2.20;;;;;;;15.38;46.82;99980.91;5023366;28;20426;-33
2023/03/08 03:29:08;;;;;;;3.17;1.80;;;;;;;15.41;46.41;99973.44;5019898;28;20428;-34
2023/03/08 03:31:34;;;;;;;2.67;1.80;;;;;;;15.43;46.53;99970.59;5022006;28;20042;-33
2023/03/08 03:34:02;;;;;;;3.10;1.98;;;;;;;15.42;46.58;99971.59;5019199;28;20314;-34
2023/03/08 03:36:28;;;;;;;2.40;1.65;;;;;;;15.37;45.93;99966.75;5027487;28;20065;-33
2023/03/08 03:38:55;;;;;;;3.15;1.73;;;;;;;15.35;46.21;99959.88;5020620;28;20053;-33
2023/03/08 03:41:22;;;;;;;3.55;2.00;;;;;;;15.30;46.96;99963.84;5023241;28;20042;-33
2023/03/08 03:43:49;;;;;;;2.67;1.60;;;;;;;15.28;45.99;99951.66;5015442;28;20096;-33
2023/03/08 03:46:19;;;;;;;2.17;1.42;;;;;;;15.22;46.09;99953.13;5030721;28;20058;-35
2023/03/08 03:48:46;;;;;;;3.35;1.83;;;;;;;15.15;46.73;99940.56;5021810;28;20042;-33
2023/03/08 03:51:16;;;;;;;2.83;1.80;;;;;;;15.08;46.85;99929.69;5025175;28;20133;-33
2023/03/08 03:53:43;;;;;;;2.63;1.75;;;;;;;15.03;47.23;99929.31;5021394;28;20049;-32
2023/03/08 03:56:16;;;;;;;3.33;1.95;;;;;;;14.96;46.40;99931.78;5024636;28;20060;-33
2023/03/08 03:58:43;;;;;;;2.27;1.80;;;;;;;14.88;47.34;99939.72;5023052;28;20052;-33
2023/03/08 04:01:17;;;;;;;2.70;1.60;;;;;;;14.78;47.66;99937.13;5024553;28;20200;-33
2023/03/08 04:03:43;;;;;;;3.17;1.60;;;;;;;14.71;47.07;99948.56;5022703;28;20049;-33
2023/03/08 04:06:17;;;;;;;2.80;1.90;;;;;;;14.60;47.00;99936.31;5024168;28;20357;-33
2023/03/08 04:08:44;;;;;;;4.10;2.10;;;;;;;14.57;48.13;99936.63;5025812;28;20064;-34
2023/03/08 04:11:14;;;;;;;2.80;1.60;;;;;;;14.50;48.18;99933.72;5024234;28;20049;-34
2023/03/08 04:13:41;;;;;;;2.20;1.38;;;;;;;14.45;47.69;99924.47;5021044;28;20076;-32
2023/03/08 04:16:13;;;;;;;2.47;1.73;;;;;;;14.39;48.43;99923.28;5025486;28;20041;-32
2023/03/08 04:18:40;;;;;;;5.70;2.22;;;;;;;14.32;48.19;99919.53;5020836;28;20053;-32
2023/03/08 04:21:07;;;;;;;3.05;1.73;;;;;;;14.26;48.08;99912.97;5025003;28;20324;-31
2023/03/08 04:23:35;;;;;;;2.25;1.40;;;;;;;14.22;48.21;99916.09;5023390;28;20045;-32
2023/03/08 04:26:02;;;;;;;2.65;1.50;;;;;;;14.18;48.92;99910.22;5022841;28;20390;-31
2023/03/08 04:28:29;;;;;;;3.17;1.70;;;;;;;14.12;48.96;99910.00;5025545;28;20055;-32
2023/03/08 04:30:56;;;;;;;2.30;1.55;;;;;;;14.10;48.57;99904.81;5024856;28;20452;-31
2023/03/08 04:33:23;;;;;;;3.20;2.03;;;;;;;14.12;48.85;99897.53;5022837;28;20331;-31
2023/03/08 04:35:49;;;;;;;3.30;1.42;;;;;;;14.25;48.24;99884.66;5023031;28;20471;-32
2023/03/08 04:38:16;;;;;;;3.22;1.88;;;;;;;14.38;48.51;99889.59;5025668;28;20468;-32
2023/03/08 04:41:10;;;;;;;2.55;1.67;;;;;;;14.53;47.60;99881.94;5023733;28;20134;-33
2023/03/08 04:43:38;;;;;;;2.22;1.35;;;;;;;14.68;47.99;99879.56;5020299;28;20188;-33
2023/03/08 04:46:07;;;;;;;2.25;1.42;;;;;;;14.78;47.07;99875.78;5023668;28;20048;-32
2023/03/08 04:48:33;;;;;;;3.67;1.83;;;;;;;14.88;47.83;99882.88;5023864;28;20046;-32
2023/03/08 04:51:03;;;;;;;2.95;1.50;;;;;;;14.96;47.63;99872.25;5024125;28;20693;-32
2023/03/08 04:53:31;;;;;;;2.35;1.45;;;;;;;15.04;46.37;99869.63;5023062;28;20060;-32
2023/03/08 04:55:59;;;;;;;2.53;1.60;;;;;;;15.10;46.67;99870.81;5024806;28;20144;-32
2023/03/08 04:58:27;;;;;;;2.90;1.58;;;;;;;15.14;46.47;99866.81;5024311;28;20096;-32
2023/03/08 05:00:54;;;;;;;1.90;1.45;;;;;;;15.17;47.02;99861.19;5021673;28;20065;-32
2023/03/08 05:03:20;;;;;;;2.33;1.42;;;;;;;15.13;46.92;99863.31;5024156;28;20049;-32
2023/03/08 05:05:53;;;;;;;2.28;1.50;;;;;;;15.09;47.14;99853.13;5023836;28;20135;-33
2023/03/08 05:08:20;;;;;;;2.45;1.40;;;;;;;15.11;46.43;99857.28;5023913;28;20072;-32
2023/03/08 05:10:58;;;;;;;1.83;1.33;;;;;;;15.09;46.23;99851.28;5022031;28;20421;-32
2023/03/08 05:13:29;;;;;;;2.15;1.52;;;;;;;15.09;46.59;99845.97;5021079;28;20167;-32
2023/03/08 05:15:56;;;;;;;2.35;1.50;;;;;;;15.10;46.55;99836.94;5020699;28;20046;-32
2023/03/08 05:18:23;;;;;;;2.15;1.60;;;;;;;15.08;45.92;99827.44;5020527;28;20484;-33
2023/03/08 05:21:10;;;;;;;2.03;1.30;;;;;;;14.99;46.71;99813.19;5023476;28;20132;-33
2023/03/08 05:23:36;;;;;;;2.85;1.60;;;;;;;14.91;45.85;99808.66;5024974;28;20055;-33
2023/03/08 05:26:05;;;;;;;2.88;1.83;;;;;;;14.82;46.65;99807.78;5017956;28;20076;-33
2023/03/08 05:28:35;;;;;;;3.22;1.70;;;;;;;14.73;46.90;99811.41;5023436;28;20049;-33
2023/03/08 05:31:15;;;;;;;2.97;2.03;;;;;;;14.61;46.91;99799.31;5023173;28;20041;-32
2023/03/08 05:33:45;;;;;;;3.97;1.90;;;;;;;14.55;47.71;99805.25;5017558;28;20056;-33
2023/03/08 05:36:13;;;;;;;3.28;2.22;;;;;;;14.50;47.06;99791.56;5020770;28;20084;-33
2023/03/08 05:38:40;;;;;;;2.83;1.83;;;;;;;14.44;47.73;99781.53;5023981;28;20080;-32
2023/03/08 05:41:10;;;;;;;2.92;2.15;;;;;;;14.38;47.53;99782.13;5023132;28;20076;-33
2023/03/08 05:43:36;;;;;;;5.38;2.58;;;;;;;14.31;47.52;99760.59;5021809;28;20045;-33
2023/03/08 05:46:06;;;;;;;4.30;2.65;;;;;;;14.25;47.66;99753.22;5022411;28;20042;-34
2023/03/08 05:48:34;;;;;;;3.78;2.40;;;;;;;14.18;48.26;99747.66;5021442;28;20057;-32
2023/03/08 05:51:05;;;;;;;4.35;2.60;;;;;;;14.13;47.81;99749.97;5018369;28;20057;-33
2023/03/08 05:53:32;;;;;;;4.72;2.40;;;;;;;14.10;48.51;99757.44;5017542;28;20046;-33
2023/03/08 05:56:19;;;;;;;4.72;2.85;;;;;;;14.02;48.09;99747.53;5020033;28;20050;-34
2023/03/08 05:58:46;;;;;;;3.67;2.45;;;;;;;14.00;48.78;99744.22;5018634;28;20049;-33
2023/03/08 06:01:22;;;;;;;5.43;3.63;;;;;;;13.96;48.59;99742.84;5017533;28;20350;-32
2023/03/08 06:03:51;;;;;;;4.95;2.75;;;;;;;13.94;48.38;99748.31;5017245;28;20422;-33
2023/03/08 06:06:19;;;;;;;4.53;3.15;;;;;;;13.90;48.62;99725.63;5017143;28;20185;-32
2023/03/08 06:08:46;;;;;;;5.20;3.25;;;;;;;13.89;48.89;99728.47;5018463;28;20058;-31
2023/03/08 06:11:14;;;;;;;6.93;3.30;;;;;;;13.90;48.40;99730.97;5029108;28;20136;-32
2023/03/08 06:13:40;;;;;;;4.70;2.97;;;;;;;13.98;48.66;99725.69;5024842;28;20042;-31
2023/03/08 06:16:08;;;;;;;5.07;3.15;;;;;;;14.13;48.44;99731.31;5024029;28;20061;-33
2023/03/08 06:18:36;;;;;;;4.68;2.90;;;;;;;14.28;48.32;99724.44;5026265;28;20053;-33
2023/03/08 06:21:12;;;;;;;5.20;3.33;;;;;;;14.44;47.88;99722.88;5022477;28;20046;-32
2023/03/08 06:23:39;;;;;;;4.95;3.30;;;;;;;14.58;47.70;99724.97;5021451;28;20057;-32
2023/03/08 06:26:07;;;;;;;4.40;2.90;;;;;;;14.74;47.72;99729.56;5021771;28;20124;-31
2023/03/08 06:28:33;;;;;;;4.63;3.30;;;;;;;14.89;46.83;99727.13;5018558;28;20049;-31
2023/03/08 06:31:01;;;;;;;5.50;3.35;;;;;;;15.01;47.03;99732.00;5023922;28;20053;-31
2023/03/08 06:33:30;;;;;;;5.68;3.35;;;;;;;15.12;46.10;99716.72;5025710;28;20053;-32
2023/03/08 06:36:04;;;;;;;7.20;3.60;;;;;;;15.18;46.46;99722.22;5024065;28;20320;-32
2023/03/08 06:38:32;;;;;;;;;;;;;;;15.20;45.70;99728.25;5023767;28;20148;-31
2023/03/08 06:40:59;;;;;;;4.90;3.20;;;;;;;15.23;46.32;99727.06;5028257;28;19925;-31
2023/03/08 06:43:26;;;;;;;5.30;3.45;;;;;;;15.20;46.30;99722.91;5022788;28;20045;-32
2023/03/08 06:45:53;;;;;;;6.30;3.55;;;;;;;15.18;46.43;99727.56;5021260;28;20069;-32
2023/03/08 06:48:20;;;;;;;5.75;4.03;;;;;;;15.17;45.83;99728.56;5021054;28;20349;-32
2023/03/08 06:50:46;;;;;;;6.25;3.50;;;;;;;15.13;46.65;99729.88;5022711;28;20327;-32
2023/03/08 06:53:16;;;;;;;5.82;3.55;;;;;;;15.06;45.69;99719.00;5028182;28;20432;-32
2023/03/08 06:55:43;;;;;;;6.10;3.97;;;;;;;15.03;45.99;99731.84;5024762;28;20049;-32
2023/03/08 06:58:09;;;;;;;6.13;3.97;;;;;;;14.98;45.97;99726.16;5022838;28;20372;-32
2023/03/08 07:00:37;;;;;;;7.55;4.45;;;;;;;14.94;46.61;99727.47;5025590;28;20076;-32
2023/03/08 07:03:03;;;;;;;6.72;4.10;;;;;;;14.89;46.37;99722.63;5024307;28;20064;-32
2023/03/08 07:05:30;;;;;;;8.27;3.97;;;;;;;14.84;46.26;99729.44;5025204;28;20049;-32
2023/03/08 07:07:56;;;;;;;5.72;3.75;;;;;;;14.76;46.32;99717.75;5020184;28;21862;-32
2023/03/08 07:10:23;;;;;;;7.07;3.80;;;;;;;14.75;46.70;99712.53;5022450;28;20053;-32
2023/03/08 07:12:50;;;;;;;6.03;4.28;;;;;;;14.81;47.09;99714.59;5023166;28;20056;-32
2023/03/08 07:15:22;;;;;;;7.00;4.07;;;;;;;14.94;46.87;99716.78;5024921;28;20085;-33
2023/03/08 07:17:51;;;;;;;6.55;4.35;;;;;;;15.07;46.01;99711.84;5019839;28;20062;-33
2023/03/08 07:20:19;;;;;;;6.47;4.03;;;;;;;15.22;46.59;99712.88;5019117;28;20045;-32
2023/03/08 07:22:46;;;;;;;7.38;4.57;;;;;;;15.36;46.41;99715.94;5021268;28;20045;-33
2023/03/08 07:25:15;;;;;;;9.77;4.55;;;;;;;15.48;45.89;99714.63;5025420;28;20124;-32
2023/03/08 07:27:42;;;;;;;6.10;3.55;;;;;;;15.60;46.15;99705.28;5023184;28;20425;-32
2023/03/08 07:30:10;;;;;;;6.07;3.83;;;;;;;15.69;46.12;99707.00;5021630;28;20049;-33
2023/03/08 07:32:39;;;;;;;8.43;4.43;;;;;;;15.79;45.36;99696.97;5025273;28;20139;-33
2023/03/08 07:35:07;;;;;;;6.38;4.30;;;;;;;15.87;45.14;99695.28;5024294;28;20054;-33
2023/03/08 07:37:34;;;;;;;7.80;4.45;;;;;;;15.94;44.48;99696.31;5022995;28;20356;-32
2023/03/08 07:40:01;;;;;;;5.28;3.63;;;;;;;16.01;44.83;99697.31;5024259;28;20052;-33
2023/03/08 07:42:27;;;;;;;6.63;4.13;;;;;;;16.06;45.17;99689.59;5023245;28;20050;-34
2023/03/08 07:44:54;;;;;;;7.43;4.25;;;;;;;16.11;44.48;99681.91;5021975;28;20337;-33
2023/03/08 07:47:20;;;;;;;7.03;4.35;;;;;;;16.15;44.79;99675.22;5019954;28;20054;-33
2023/03/08 07:49:47;;;;;;;6.78;4.22;;;;;;;16.19;44.93;99673.88;5022404;28;20434;-33
2023/03/08 07:52:14;;;;;;;7.65;4.10;;;;;;;16.24;43.95;99673.34;5038804;28;20480;-32
2023/03/08 07:54:42;;;;;;;7.22;4.22;;;;;;;16.28;44.43;99677.38;5021124;28;20050;-33
2023/03/08 07:57:13;;;;;;;7.15;4.50;;;;;;;16.33;44.24;99668.84;5019656;28;20065;-33
2023/03/08 07:59:41;;;;;;;6.38;4.30;;;;;;;16.36;44.47;99665.81;5021481;28;20349;-32
2023/03/08 08:02:12;;;;;;;8.13;4.88;;;;;;;16.39;44.11;99658.28;5024822;28;20049;-34
2023/03/08 08:04:39;;;;;;;6.15;4.10;;;;;;;16.43;44.48;99654.25;5021831;28;20345;-33
2023/03/08 08:07:11;;;;;;;7.25;4.55;;;;;;;16.45;44.43;99657.63;5020029;28;20342;-33
2023/03/08 08:09:38;;;;;;;8.32;4.97;;;;;;;16.49;43.96;99652.75;5025641;28;20049;-33
2023/03/08 08:12:05;;;;;;;6.78;4.32;;;;;;;16.52;44.24;99653.25;5023300;28;20131;-33
2023/03/08 08:14:32;;;;;;;8.48;4.90;;;;;;;16.55;43.33;99657.41;5020652;28;20057;-34
2023/03/08 08:16:59;;;;;;;6.95;4.75;;;;;;;16.57;43.38;99650.06;5020941;28;20110;-33
2023/03/08 08:19:26;;;;;;;8.45;4.95;;;;;;;16.60;44.40;99649.69;5019024;28;20049;-34
2023/03/08 08:21:52;;;;;;;9.77;4.72;;;;;;;16.63;43.91;99643.16;5020414;28;20590;-33
2023/03/08 08:24:19;;;;;;;6.30;4.47;;;;;;;16.66;43.20;99638.31;5025584;28;20054;-33
2023/03/08 08:26:45;;;;;;;6.78;4.72;;;;;;;16.68;43.56;99641.66;5020486;28;20046;-33
2023/03/08 08:29:12;;;;;;;8.57;4.85;;;;;;;16.71;43.34;99648.47;5023570;28;21108;-33
2023/03/08 08:31:39;;;;;;;6.97;4.72;;;;;;;16.72;44.17;99648.31;5023673;28;20045;-35
2023/03/08 08:34:06;;;;;;;6.78;4.28;;;;;;;16.75;43.69;99647.16;5023349;28;20392;-33
2023/03/08 08:36:32;;;;;;;7.60;4.90;;;;;;;16.76;43.37;99652.34;5020886;28;20057;-34
2023/03/08 08:38:59;;;;;;;8.40;5.28;;;;;;;16.79;43.73;99656.50;5023063;28;20330;-36
2023/03/08 08:41:26;;;;;;;8.07;4.70;;;;;;;16.81;43.32;99661.69;5020478;28;20057;-34
2023/03/08 08:43:57;;;;;;;8.02;5.00;;;;;;;16.82;43.29;99656.16;5024929;28;20037;-33
2023/03/08 08:46:26;;;;;;;6.80;4.05;;;;;;;16.84;43.56;99653.28;5020305;28;20047;-34
2023/03/08 08:48:54;;;;;;;8.27;4.93;;;;;;;16.86;43.34;99640.59;5022214;28;20096;-34
2023/03/08 08:51:21;;;;;;;7.75;4.30;;;;;;;16.86;43.19;99643.25;5021709;28;20417;-33
2023/03/08 08:53:48;;;;;;;8.52;4.97;;;;;;;16.88;44.09;99650.09;5023292;28;20413;-33
2023/03/08 08:56:20;;;;;;;7.50;4.88;;;;;;;16.89;43.49;99637.56;5022826;28;20441;-33
2023/03/08 08:58:54;;;;;;;8.20;5.03;;;;;;;16.91;43.23;99640.88;5024206;28;20473;-32
2023/03/08 09:01:24;;;;;;;7.38;5.15;;;;;;;16.92;43.91;99645.22;5019388;28;20081;-34
2023/03/08 09:03:51;;;;;;;8.27;5.30;;;;;;;16.93;43.31;99649.59;5018572;28;20050;-34
2023/03/08 09:06:19;;;;;;;9.15;5.30;;;;;;;16.94;43.44;99651.25;5020359;28;20133;-33
2023/03/08 09:08:54;;;;;;;6.63;4.53;;;;;;;16.95;43.00;99647.56;5020272;28;20053;-33
2023/03/08 09:11:22;;;;;;;8.10;4.47;;;;;;;16.95;43.75;99647.56;5026995;28;20391;-34
2023/03/08 09:13:49;;;;;;;7.97;5.07;;;;;;;16.92;43.31;99645.22;5020961;28;20128;-33
2023/03/08 09:16:20;;;;;;;7.43;5.05;;;;;;;16.87;42.86;99644.91;5024787;28;20069;-32
2023/03/08 09:18:47;;;;;;;9.20;5.50;;;;;;;16.81;43.98;99633.09;5013020;28;20049;-33
2023/03/08 09:21:14;;;;;;;7.57;4.93;;;;;;;16.75;43.47;99618.53;5021559;28;20056;-32
2023/03/08 09:23:40;;;;;;;7.47;4.82;;;;;;;16.67;43.78;99610.53;5016780;28;20049;-34
2023/03/08 09:26:08;;;;;;;7.50;5.10;;;;;;;16.59;43.56;99604.38;5022089;28;20041;-34
2023/03/08 09:28:34;;;;;;;8.00;4.70;;;;;;;16.49;43.69;99596.59;5021988;28;20124;-34
2023/03/08 09:31:11;;;;;;;7.40;5.05;;;;;;;16.40;44.59;99598.47;5020621;28;20591;-34
2023/03/08 09:33:43;;;;;;;6.75;4.30;;;;;;;16.34;44.85;99595.66;5018262;28;20410;-32
2023/03/08 09:36:10;;;;;;;7.60;5.07;;;;;;;16.24;45.08;99601.16;5020847;28;20132;-32
2023/03/08 09:38:37;;;;;;;7.60;4.88;;;;;;;16.17;44.61;99606.41;5023834;28;20052;-32
2023/03/08 09:41:24;;;;;;;8.80;4.97;;;;;;;16.10;45.24;99593.88;5024348;28;20046;-32
2023/03/08 09:44:09;;;;;;;7.47;5.00;;;;;;;16.05;45.12;99586.38;5019663;28;20499;-32
2023/03/08 09:46:47;;;;;;;7.63;5.20;;;;;;;16.02;45.77;99576.84;5020382;28;20346;-33
2023/03/08 09:49:29;;;;;;;8.25;5.32;;;;;;;16.07;44.89;99565.66;5019514;28;20139;-33
2023/03/08 09:52:10;;;;;;;9.90;4.82;;;;;;;16.17;45.17;99566.28;5017095;28;20433;-33
2023/03/08 09:54:38;;;;;;;9.07;5.70;;;;;;;16.28;45.03;99571.28;5018269;28;20065;-34
2023/03/08 09:57:11;;;;;;;8.85;5.10;;;;;;;16.39;44.59;99578.06;5019759;28;20053;-33
2023/03/08 10:00:01;;;;;;;8.15;5.00;;;;;;;16.47;44.69;99574.53;5022133;28;20056;-33
2023/03/08 10:02:38;;;;;;;9.20;5.55;;;;;;;16.57;44.47;99583.19;5022393;28;20088;-34
2023/03/08 10:05:08;;;;;;;9.68;5.22;;;;;;;16.64;43.75;99576.09;5019314;28;20462;-34
2023/03/08 10:08:17;;;;;;;9.65;4.90;;;;;;;16.72;43.90;99569.88;5017539;28;20053;-33
2023/03/08 10:11:06;;;;;;;7.25;4.80;;;;;;;16.78;44.00;99575.38;5018672;28;20049;-33
2023/03/08 10:13:36;;;;;;;8.73;5.30;;;;;;;16.83;44.49;99566.81;5023909;28;20046;-34
2023/03/08 10:16:14;;;;;;;10.50;5.78;;;;;;;16.85;43.67;99562.16;5018643;28;20144;-33
2023/03/08 10:19:02;;;;;;;8.98;5.03;;;;;;;16.88;43.94;99563.63;5016425;28;20430;-33
2023/03/08 10:21:31;;;;;;;9.57;5.53;;;;;;;16.87;44.24;99564.63;5018168;28;20076;-33
2023/03/08 10:24:25;;;;;;;8.65;5.47;;;;;;;16.82;43.90;99561.66;5016909;28;20052;-33
2023/03/08 10:26:53;;;;;;;9.38;5.90;;;;;;;16.79;44.09;99557.50;5020061;28;20099;-33
2023/03/08 10:29:20;;;;;;;8.65;5.32;;;;;;;16.77;44.31;99549.66;5020761;28;20045;-34
2023/03/08 10:31:47;;;;;;;8.40;4.88;;;;;;;16.75;43.89;99538.28;5021246;28;20054;-33
2023/03/08 10:34:20;;;;;;;11.52;6.45;;;;;;;16.75;44.52;99521.41;5019138;28;20046;-35
2023/03/08 10:36:50;;;;;;;10.48;5.57;;;;;;;16.78;44.19;99502.31;5029402;28;20341;-34
2023/03/08 10:39:17;;;;;;;9.15;5.90;;;;;;;16.80;44.41;99510.16;5020284;28;20054;-33
2023/03/08 10:41:50;;;;;;;11.15;5.45;;;;;;;16.83;43.86;99510.63;5021103;28;20050;-34
2023/03/08 10:44:35;;;;;;;10.05;5.97;;;;;;;16.85;44.24;99511.31;5019103;28;20054;-33
2023/03/08 10:47:16;;;;;;;9.43;5.82;;;;;;;16.89;44.51;99519.81;5021300;28;20132;-35
2023/03/08 10:49:43;;;;;;;10.05;6.35;;;;;;;16.91;44.17;99523.13;5021118;28;20058;-34
2023/03/08 10:52:25;;;;;;;8.40;5.57;;;;;;;16.92;43.49;99519.44;5018000;28;20042;-33
2023/03/08 10:55:05;;;;;;;10.30;5.82;;;;;;;16.95;44.24;99521.75;5024701;28;20045;-32
2023/03/08 10:57:32;;;;;;;10.15;6.07;;;;;;;16.97;44.10;99520.56;5020559;28;20081;-32
2023/03/08 11:00:39;;;;;;;9.88;6.15;;;;;;;16.97;44.00;99523.25;5025420;28;20052;-31
2023/03/08 11:03:09;;;;;;;12.13;6.18;;;;;;;16.99;43.65;99521.22;5019688;28;20050;-34
2023/03/08 11:05:36;;;;;;;11.25;6.07;;;;;;;16.98;43.16;99524.09;5027342;28;20063;-33
2023/03/08 11:08:03;;;;;;;10.82;6.85;;;;;;;16.95;43.13;99527.94;5028204;28;20444;-33
2023/03/08 11:10:32;;;;;;;11.13;5.88;;;;;;;16.92;43.44;99539.00;5024479;28;20132;-33
2023/03/08 11:13:35;;;;;;;9.32;5.68;;;;;;;16.87;43.04;99548.56;5026304;28;20052;-32
2023/03/08 11:16:18;;;;;;;9.30;5.88;;;;;;;16.81;42.83;99547.47;5028845;28;20045;-33
2023/03/08 11:18:59;;;;;;;10.10;6.22;;;;;;;16.73;42.96;99548.34;5029869;28;20048;-34
2023/03/08 11:21:46;;;;;;;10.55;5.93;;;;;;;16.67;43.48;99538.28;5023262;28;20333;-33
2023/03/08 11:24:45;;;;;;;13.63;6.57;;;;;;;16.57;43.34;99523.50;5024748;28;20049;-33
2023/03/08 11:27:22;;;;;;;10.07;5.53;;;;;;;16.53;43.24;99520.34;5023086;28;20057;-34
2023/03/08 11:30:02;;;;;;;9.52;5.50;;;;;;;16.53;43.39;99517.66;5023723;28;20084;-33
2023/03/08 11:33:02;;;;;;;8.98;5.55;;;;;;;16.59;43.98;99521.47;5022663;28;20050;-34
2023/03/08 11:35:55;;;;;;;8.93;5.88;;;;;;;16.69;42.92;99525.59;5024771;28;20057;-33
2023/03/08 11:38:25;;;;;;;8.27;5.25;;;;;;;16.80;43.23;99510.97;5023212;28;20067;-33
2023/03/08 11:41:18;;;;;;;9.52;5.85;;;;;;;16.86;43.75;99512.13;5024233;28;20132;-34
2023/03/08 11:44:06;;;;;;;10.80;5.00;;;;;;;16.94;43.30;99494.16;5024334;28;20046;-34
2023/03/08 11:47:10;;;;;;;8.40;5.20;;;;;;;17.01;43.61;99486.25;5019600;28;20087;-34